Photometre #354[Standard_N] Mount_Chacaltaya AOT

File : 20220921_354.hum

21/09/2022,11:01:52,TEMP=-2.5,BA=5.60,STAT.A=Abs.,ExtBa=12.45
21/09/2022,11:04:48,TEMP=-2.2,BA=5.60,STAT.A=Abs.,ExtBa=12.39
21/09/2022,11:07:46,TEMP=-2.1,BA=5.60,STAT.A=Abs.,ExtBa=12.36
21/09/2022,11:11:19,TEMP=-2.0,BA=5.36,STAT.A=Abs.,ExtBa=12.35
21/09/2022,11:15:46,TEMP=-2.0,BA=5.36,STAT.A=Abs.,ExtBa=12.35
21/09/2022,11:21:13,TEMP=-2.1,BA=5.56,STAT.A=Abs.,ExtBa=12.37
21/09/2022,11:36:00,TEMP=-2.0,BA=5.60,STAT.B=Abs.,ExtBa=12.40
21/09/2022,11:38:59,TEMP=-1.8,BA=5.60,STAT.A=Abs.,ExtBa=12.36
21/09/2022,11:41:57,TEMP=-1.6,BA=5.36,STAT.A=Abs.,ExtBa=12.33
21/09/2022,11:44:55,TEMP=-1.2,BA=5.36,STAT.A=Abs.,ExtBa=12.32
21/09/2022,11:47:53,TEMP=-0.9,BA=5.36,STAT.A=Abs.,ExtBa=12.31
21/09/2022,11:50:52,TEMP=-0.6,BA=5.36,STAT.C=Abs.,ExtBa=12.31
21/09/2022,12:02:41,TEMP=0.0,BA=5.36,STAT.A=Abs.,ExtBa=12.36
21/09/2022,12:05:41,TEMP=0.3,BA=5.36,STAT.A=Abs.,ExtBa=12.54
21/09/2022,12:10:43,TEMP=0.1,BA=5.60,STAT.A=Abs.,ExtBa=12.45
21/09/2022,12:20:54,TEMP=0.5,BA=5.64,STAT.A=Abs.,ExtBa=12.98
21/09/2022,12:33:28,TEMP=1.0,BA=5.64,STAT.B=Abs.,ExtBa=13.50
21/09/2022,12:59:14,TEMP=2.1,BA=5.64,STAT.B=Abs.,ExtBa=13.65
21/09/2022,13:11:21,TEMP=2.6,BA=5.68,STAT.D=Abs.,ExtBa=13.58
21/09/2022,13:26:23,TEMP=2.8,BA=5.68,STAT.F,ExtBa=13.70
21/09/2022,13:41:22,TEMP=3.5,BA=5.68,STAT.D=Abs.,ExtBa=13.61
21/09/2022,13:56:22,TEMP=4.0,BA=5.68,STAT.D=Abs.,ExtBa=13.77
21/09/2022,14:11:22,TEMP=4.4,BA=5.68,STAT.D=Abs.,ExtBa=13.81
21/09/2022,14:26:24,TEMP=5.0,BA=5.68,STAT.F,ExtBa=13.89
21/09/2022,14:41:22,TEMP=5.3,BA=5.68,STAT.D=Abs.,ExtBa=13.96
21/09/2022,14:56:22,TEMP=5.8,BA=5.68,STAT.D=Abs.,ExtBa=14.08
21/09/2022,15:11:22,TEMP=6.0,BA=5.68,STAT.D=Abs.,ExtBa=14.25
21/09/2022,15:26:24,TEMP=6.1,BA=5.64,STAT.F,ExtBa=14.37
21/09/2022,15:41:23,TEMP=6.5,BA=5.64,STAT.D=Abs.,ExtBa=14.39
21/09/2022,15:56:23,TEMP=6.6,BA=5.64,STAT.D=Abs.,ExtBa=14.40
21/09/2022,16:11:23,TEMP=6.8,BA=5.64,STAT.D=Abs.,ExtBa=14.38
21/09/2022,16:26:25,TEMP=7.1,BA=5.64,STAT.F,ExtBa=14.38
21/09/2022,16:41:23,TEMP=7.3,BA=5.64,STAT.D=Abs.,ExtBa=14.36
21/09/2022,16:56:23,TEMP=7.5,BA=5.64,STAT.D=Abs.,ExtBa=14.35
21/09/2022,17:11:23,TEMP=7.5,BA=5.64,STAT.D=Abs.,ExtBa=14.20
21/09/2022,17:26:24,TEMP=7.6,BA=5.64,STAT.F,ExtBa=14.19
21/09/2022,17:43:43,TEMP=8.1,BA=5.64,STAT.D=Abs.,ExtBa=14.17
21/09/2022,17:58:29,TEMP=8.4,BA=5.64,STAT.D=Abs.,ExtBa=14.22
21/09/2022,18:11:22,TEMP=8.7,BA=5.64,STAT.D=Abs.,ExtBa=14.31
21/09/2022,18:26:23,TEMP=8.8,BA=5.64,STAT.F,ExtBa=14.30
21/09/2022,18:41:22,TEMP=9.3,BA=5.64,STAT.D=Abs.,ExtBa=14.28
21/09/2022,18:56:22,TEMP=9.5,BA=5.64,STAT.D=Abs.,ExtBa=14.25
21/09/2022,19:11:22,TEMP=9.8,BA=5.64,STAT.D=Abs.,ExtBa=14.22
21/09/2022,19:26:23,TEMP=9.8,BA=5.64,STAT.F,ExtBa=14.20
21/09/2022,19:41:21,TEMP=9.7,BA=5.64,STAT.D=Abs.,ExtBa=13.92
21/09/2022,19:53:32,TEMP=9.8,BA=5.64,STAT.B=Abs.,ExtBa=14.15
21/09/2022,20:19:17,TEMP=10.1,BA=5.64,STAT.B=Abs.,ExtBa=14.08
21/09/2022,20:31:50,TEMP=9.7,BA=5.64,STAT.A=Abs.,ExtBa=13.65
21/09/2022,20:42:01,TEMP=10.0,BA=5.64,STAT.A=Abs.,ExtBa=13.87
21/09/2022,20:50:28,TEMP=9.8,BA=5.64,STAT.A=Abs.,ExtBa=13.88
21/09/2022,20:57:37,TEMP=9.7,BA=5.64,STAT.A=Abs.,ExtBa=13.82
21/09/2022,21:03:43,TEMP=9.8,BA=5.64,STAT.C=Abs.,ExtBa=13.74
21/09/2022,21:15:39,TEMP=9.3,BA=5.56,STAT.A=Abs.,ExtBa=12.68
21/09/2022,21:18:39,TEMP=9.5,BA=5.56,STAT.A=Abs.,ExtBa=12.72
21/09/2022,21:21:37,TEMP=9.3,BA=5.60,STAT.A=Abs.,ExtBa=12.72
21/09/2022,21:24:35,TEMP=9.3,BA=5.60,STAT.A=Abs.,ExtBa=12.71
21/09/2022,21:27:34,TEMP=9.1,BA=5.60,STAT.B=Abs.,ExtBa=12.71
21/09/2022,21:36:35,TEMP=8.7,BA=5.56,STAT.A=Abs.,ExtBa=12.69
21/09/2022,21:39:46,TEMP=8.8,BA=5.56,STAT.A=Abs.,ExtBa=12.67
21/09/2022,21:42:46,TEMP=8.8,BA=5.56,STAT.A=Abs.,ExtBa=12.68
21/09/2022,21:45:52,TEMP=8.7,BA=5.56,STAT.A=Abs.,ExtBa=12.67
21/09/2022,21:48:51,TEMP=8.6,BA=5.56,STAT.A=Abs.,ExtBa=12.67
21/09/2022,21:51:52,TEMP=8.6,BA=5.52,STAT.A=Abs.,ExtBa=12.67